Time;durP1;ratioP1;P1;durP2;ratioP2;P2;SDS_P1;SDS_P2;PMS_P1;PMS_P2;Temp;Humidity;BMP_temperature;BMP_pressure;BME280_temperature;BME280_humidity;BME280_pressure;Samples;Min_cycle;Max_cycle;Signal;HPM_P1;HPM_P2
2022/08/03 00:01:01;;;;;;;3.45;3.17;;;24.60;55.90;;;;;;5034197;28;20322;-75
2022/08/03 00:03:28;;;;;;;3.60;3.30;;;24.60;55.90;;;;;;5035255;28;20299;-76
2022/08/03 00:05:55;;;;;;;3.15;2.95;;;24.60;55.90;;;;;;5034027;28;20698;-76
2022/08/03 00:08:22;;;;;;;3.38;3.17;;;24.60;56.00;;;;;;5018397;28;20299;-74
2022/08/03 00:10:50;;;;;;;3.40;3.10;;;24.60;56.00;;;;;;5034139;28;20234;-75
2022/08/03 00:13:18;;;;;;;3.47;3.17;;;24.60;56.00;;;;;;5034037;28;20298;-75
2022/08/03 00:15:46;;;;;;;3.83;3.20;;;24.60;56.10;;;;;;5034094;28;20200;-76
2022/08/03 00:18:13;;;;;;;3.33;3.00;;;24.60;56.10;;;;;;5033948;28;20208;-75
2022/08/03 00:20:40;;;;;;;3.03;2.78;;;24.60;56.10;;;;;;5034617;28;20586;-74
2022/08/03 00:23:07;;;;;;;3.33;3.03;;;24.60;56.10;;;;;;5035349;28;20195;-75
2022/08/03 00:25:34;;;;;;;3.10;2.90;;;24.50;56.10;;;;;;5033675;28;20234;-75
2022/08/03 00:28:01;;;;;;;3.08;2.88;;;24.50;56.00;;;;;;5033644;28;20238;-75
2022/08/03 00:30:28;;;;;;;3.60;3.30;;;24.50;56.10;;;;;;5034893;28;20192;-76
2022/08/03 00:32:56;;;;;;;3.20;3.00;;;24.50;56.10;;;;;;5033718;28;20732;-75
2022/08/03 00:35:24;;;;;;;3.53;2.90;;;24.50;56.10;;;;;;5033684;28;20651;-75
2022/08/03 00:37:51;;;;;;;3.10;2.90;;;24.50;56.10;;;;;;5034099;28;20196;-76
2022/08/03 00:40:18;;;;;;;3.22;3.03;;;24.50;56.10;;;;;;5033471;28;20203;-76
2022/08/03 00:42:47;;;;;;;3.97;3.05;;;24.50;56.10;;;;;;5033360;28;20621;-77
2022/08/03 00:45:14;;;;;;;3.08;2.88;;;24.50;56.20;;;;;;5033331;28;20262;-77
2022/08/03 00:47:41;;;;;;;3.40;3.10;;;24.50;56.20;;;;;;5033204;28;20270;-76
2022/08/03 00:50:10;;;;;;;3.45;3.15;;;24.50;56.80;;;;;;5033291;28;20196;-76
2022/08/03 00:52:37;;;;;;;3.13;2.92;;;24.50;56.10;;;;;;5033254;28;20208;-76
2022/08/03 00:55:05;;;;;;;3.20;3.00;;;24.40;56.10;;;;;;5033385;28;20220;-75
2022/08/03 00:57:32;;;;;;;3.30;3.00;;;24.40;56.20;;;;;;5033727;28;20224;-76
2022/08/03 01:00:00;;;;;;;3.45;3.25;;;24.40;56.20;;;;;;5033123;28;20207;-76
2022/08/03 01:02:27;;;;;;;3.25;3.05;;;24.40;56.20;;;;;;5033446;28;20210;-76
2022/08/03 01:04:54;;;;;;;3.60;3.10;;;24.40;56.30;;;;;;5033025;28;20216;-75
2022/08/03 01:07:27;;;;;;;3.03;2.80;;;24.40;56.30;;;;;;5033945;28;20247;-76
2022/08/03 01:10:00;;;;;;;3.45;3.20;;;24.40;56.20;;;;;;5033170;28;20667;-73
2022/08/03 01:12:31;;;;;;;3.40;3.10;;;24.40;56.30;;;;;;5034636;28;20555;-75
2022/08/03 01:15:00;;;;;;;3.50;3.30;;;24.40;56.30;;;;;;5052523;28;20227;-75
2022/08/03 01:17:31;;;;;;;3.47;3.28;;;24.30;56.20;;;;;;5058912;28;20204;-75
2022/08/03 01:20:00;;;;;;;3.50;3.20;;;24.30;56.30;;;;;;5045335;28;20203;-73
2022/08/03 01:22:44;;;;;;;3.25;2.95;;;24.30;56.30;;;;;;5033107;28;20191;-75
2022/08/03 01:25:16;;;;;;;3.13;2.92;;;24.30;56.30;;;;;;5033928;28;20204;-75
2022/08/03 01:27:50;;;;;;;3.10;2.75;;;24.30;56.30;;;;;;5032773;28;20266;-74
2022/08/03 01:30:18;;;;;;;3.65;3.00;;;24.30;56.20;;;;;;5035066;28;20538;-77
2022/08/03 01:32:48;;;;;;;4.20;3.35;;;24.30;56.40;;;;;;5016846;28;20215;-75
2022/08/03 01:35:17;;;;;;;3.17;2.97;;;24.30;56.30;;;;;;5032530;28;20629;-75
2022/08/03 01:37:51;;;;;;;3.38;3.08;;;24.30;56.30;;;;;;5032435;28;20310;-76
2022/08/03 01:40:20;;;;;;;3.60;3.30;;;24.30;56.30;;;;;;5032662;28;20214;-75
2022/08/03 01:42:46;;;;;;;3.00;2.80;;;24.30;56.30;;;;;;5032639;28;20206;-76
2022/08/03 01:45:16;;;;;;;3.13;2.88;;;24.30;56.30;;;;;;5033938;28;20612;-76
2022/08/03 01:47:44;;;;;;;3.95;2.78;;;24.30;56.30;;;;;;5032340;28;20222;-75
2022/08/03 01:50:11;;;;;;;3.65;3.08;;;24.30;56.30;;;;;;5032512;28;20207;-76
2022/08/03 01:52:39;;;;;;;3.33;3.10;;;24.20;56.20;;;;;;5032498;28;20204;-76
2022/08/03 01:55:07;;;;;;;3.15;2.85;;;24.20;56.20;;;;;;5032773;28;20198;-77
2022/08/03 01:57:34;;;;;;;3.28;2.97;;;24.20;56.20;;;;;;5032807;28;20220;-75
2022/08/03 02:00:01;;;;;;;3.03;2.83;;;24.20;56.30;;;;;;5032727;28;20678;-77
2022/08/03 02:02:38;;;;;;;2.95;2.75;;;24.20;56.30;;;;;;5033761;28;20184;-75
2022/08/03 02:05:08;;;;;;;2.85;2.65;;;24.20;56.20;;;;;;5032583;28;20319;-76
2022/08/03 02:07:35;;;;;;;3.00;2.80;;;24.20;56.30;;;;;;5032369;28;20593;-76
2022/08/03 02:10:04;;;;;;;3.50;3.20;;;24.20;56.30;;;;;;5032372;28;20253;-76
2022/08/03 02:12:31;;;;;;;3.47;3.17;;;24.20;56.30;;;;;;5032136;28;20615;-74
2022/08/03 02:14:58;;;;;;;2.92;2.72;;;24.20;56.20;;;;;;5032252;28;20189;-75
2022/08/03 02:17:26;;;;;;;3.42;3.13;;;24.20;56.40;;;;;;5032194;28;20216;-74
2022/08/03 02:19:53;;;;;;;3.47;3.08;;;24.20;56.40;;;;;;5032440;28;20663;-77
2022/08/03 02:22:22;;;;;;;3.15;2.95;;;24.20;56.40;;;;;;5033490;28;20208;-74
2022/08/03 02:24:49;;;;;;;3.60;3.30;;;24.20;56.40;;;;;;5035800;28;20277;-76
2022/08/03 02:27:18;;;;;;;2.95;2.75;;;24.10;56.30;;;;;;5036023;28;20712;-75
2022/08/03 02:29:46;;;;;;;3.15;2.92;;;24.10;56.30;;;;;;5037151;28;20215;-76
2022/08/03 02:32:16;;;;;;;3.45;3.20;;;24.10;56.40;;;;;;5035713;28;20196;-74
2022/08/03 02:34:46;;;;;;;3.15;2.85;;;24.10;56.30;;;;;;5037338;28;20184;-76
2022/08/03 02:37:12;;;;;;;3.30;3.10;;;24.10;56.40;;;;;;5035650;28;20224;-75
2022/08/03 02:39:41;;;;;;;3.00;2.80;;;24.10;56.40;;;;;;5035641;28;20195;-77
2022/08/03 02:42:09;;;;;;;3.10;2.90;;;24.10;56.40;;;;;;5037213;28;20196;-75
2022/08/03 02:44:36;;;;;;;4.40;3.17;;;24.10;56.40;;;;;;5035517;28;20216;-75
2022/08/03 02:47:05;;;;;;;3.22;2.88;;;24.10;56.40;;;;;;5035441;28;20593;-76
2022/08/03 02:49:32;;;;;;;2.90;2.67;;;24.10;56.40;;;;;;5035629;28;20227;-77
2022/08/03 02:51:59;;;;;;;3.10;2.90;;;24.10;56.40;;;;;;5035479;28;20200;-75
2022/08/03 02:54:27;;;;;;;3.10;2.90;;;24.10;56.40;;;;;;5035369;28;20196;-76
2022/08/03 02:56:55;;;;;;;3.15;2.95;;;24.00;56.40;;;;;;5035357;28;20220;-74
2022/08/03 02:59:22;;;;;;;2.97;2.78;;;24.00;56.30;;;;;;5035278;28;20196;-76
2022/08/03 03:01:49;;;;;;;3.05;2.85;;;24.00;56.30;;;;;;5035373;28;20199;-76
2022/08/03 03:04:16;;;;;;;3.58;2.88;;;24.00;56.40;;;;;;5035144;28;20207;-74
2022/08/03 03:06:43;;;;;;;2.90;2.70;;;24.00;56.40;;;;;;5036614;28;20578;-75
2022/08/03 03:09:11;;;;;;;4.38;2.95;;;24.00;56.40;;;;;;5036405;28;20204;-75
2022/08/03 03:11:38;;;;;;;3.30;3.00;;;24.00;56.30;;;;;;5035107;28;20657;-76
2022/08/03 03:14:06;;;;;;;3.35;3.03;;;24.00;56.30;;;;;;5036635;28;20242;-75
2022/08/03 03:16:34;;;;;;;2.80;2.60;;;24.00;56.20;;;;;;5036182;28;20212;-76
2022/08/03 03:19:01;;;;;;;3.30;3.00;;;24.00;56.80;;;;;;5035153;28;20234;-74
2022/08/03 03:21:28;;;;;;;3.42;3.22;;;24.00;56.30;;;;;;5036480;28;20238;-74
2022/08/03 03:23:54;;;;;;;3.17;2.88;;;24.00;56.40;;;;;;5035839;28;20265;-75
2022/08/03 03:26:21;;;;;;;4.10;3.10;;;24.00;56.20;;;;;;5034892;28;20235;-74
2022/08/03 03:28:48;;;;;;;3.40;3.20;;;24.00;56.00;;;;;;5036090;28;20200;-74
2022/08/03 03:31:17;;;;;;;3.50;3.20;;;24.10;56.10;;;;;;5035066;28;20188;-76
2022/08/03 03:33:44;;;;;;;3.20;3.00;;;24.10;55.90;;;;;;5035686;28;20241;-76
2022/08/03 03:36:11;;;;;;;3.38;3.00;;;24.10;55.80;;;;;;5036292;28;20215;-75
2022/08/03 03:38:38;;;;;;;3.25;3.05;;;24.20;55.70;;;;;;5034590;28;20662;-75
2022/08/03 03:41:05;;;;;;;3.47;3.17;;;24.20;55.60;;;;;;5018570;28;20269;-76
2022/08/03 03:43:32;;;;;;;3.22;2.92;;;24.20;55.50;;;;;;5034494;28;20203;-74
2022/08/03 03:45:59;;;;;;;4.30;3.17;;;24.20;55.40;;;;;;5034555;28;20235;-77
2022/08/03 03:48:27;;;;;;;3.63;3.20;;;24.20;55.30;;;;;;5034528;28;20206;-76
2022/08/03 03:50:56;;;;;;;3.28;3.08;;;24.20;55.40;;;;;;5034816;28;20196;-74
2022/08/03 03:53:22;;;;;;;3.08;2.88;;;24.30;55.50;;;;;;5034982;28;20567;-76
2022/08/03 03:55:51;;;;;;;4.75;2.95;;;24.20;55.40;;;;;;5035483;28;20239;-75
2022/08/03 03:58:18;;;;;;;3.20;3.00;;;24.30;55.50;;;;;;5034883;28;20196;-76
2022/08/03 04:00:45;;;;;;;3.10;2.90;;;24.20;55.50;;;;;;5034553;28;20563;-75
2022/08/03 04:03:12;;;;;;;3.33;3.13;;;24.20;55.30;;;;;;5034592;28;20235;-73
2022/08/03 04:11:22;;;;;;;3.13;2.92;;;24.20;55.40;;;;;;5046269;28;20196;-74
2022/08/03 04:13:50;;;;;;;3.20;3.00;;;24.20;55.50;;;;;;5034131;28;20208;-74
2022/08/03 04:16:18;;;;;;;3.55;3.25;;;24.20;55.60;;;;;;5034065;28;20270;-76
2022/08/03 04:18:48;;;;;;;3.60;3.30;;;24.20;55.50;;;;;;5034201;28;20204;-76
2022/08/03 04:21:16;;;;;;;3.20;3.00;;;24.10;55.40;;;;;;5034725;28;20655;-75
2022/08/03 04:23:46;;;;;;;3.30;3.00;;;24.20;56.20;;;;;;5018300;28;20561;-76
2022/08/03 04:26:14;;;;;;;2.95;2.75;;;24.20;55.50;;;;;;5033928;28;20227;-75
2022/08/03 04:28:42;;;;;;;3.03;2.83;;;24.10;55.50;;;;;;5033827;28;20192;-76
2022/08/03 04:31:09;;;;;;;3.00;2.80;;;24.10;55.50;;;;;;5033900;28;20659;-75
2022/08/03 04:33:37;;;;;;;3.10;2.90;;;24.10;55.40;;;;;;5033817;28;20203;-76
2022/08/03 04:36:05;;;;;;;3.30;3.08;;;24.10;55.50;;;;;;5034258;28;20222;-76
2022/08/03 04:38:39;;;;;;;3.60;3.30;;;24.10;55.50;;;;;;5034931;28;20216;-76
2022/08/03 04:41:07;;;;;;;3.90;3.60;;;24.10;55.40;;;;;;5033857;28;20180;-76
2022/08/03 04:43:34;;;;;;;3.83;3.42;;;24.10;56.20;;;;;;5033745;28;20570;-75
2022/08/03 04:46:01;;;;;;;3.83;3.53;;;23.80;56.80;;;;;;5033065;28;20224;-76
2022/08/03 04:48:28;;;;;;;3.65;3.35;;;23.50;57.40;;;;;;5034444;28;20196;-75
2022/08/03 04:50:55;;;;;;;4.10;3.80;;;23.30;58.10;;;;;;5034320;28;20254;-75
2022/08/03 04:53:22;;;;;;;3.88;3.40;;;23.10;58.70;;;;;;5035040;28;20228;-75
2022/08/03 04:55:51;;;;;;;5.28;3.75;;;23.00;58.90;;;;;;5033909;28;20252;-75
2022/08/03 04:58:18;;;;;;;4.40;3.85;;;22.90;59.30;;;;;;5033392;28;20196;-75
2022/08/03 05:00:49;;;;;;;5.03;3.80;;;22.80;59.60;;;;;;5033043;28;20720;-77
2022/08/03 05:03:17;;;;;;;4.20;3.80;;;22.90;59.70;;;;;;5018676;28;20246;-76
2022/08/03 05:05:44;;;;;;;4.07;3.38;;;22.90;59.70;;;;;;5033116;28;20220;-76
2022/08/03 05:08:10;;;;;;;3.70;3.40;;;22.90;59.60;;;;;;5033462;28;20207;-75
2022/08/03 05:10:38;;;;;;;4.03;3.72;;;23.10;59.30;;;;;;5034158;28;20222;-76
2022/08/03 05:13:10;;;;;;;4.10;3.70;;;23.20;59.10;;;;;;5032768;28;20200;-75
2022/08/03 05:15:37;;;;;;;4.15;3.85;;;23.30;59.00;;;;;;5033143;28;20184;-76
2022/08/03 05:18:04;;;;;;;3.80;3.50;;;23.30;58.90;;;;;;5033412;28;20208;-76
2022/08/03 05:20:32;;;;;;;3.70;3.42;;;23.50;58.10;;;;;;5033255;28;20200;-74
2022/08/03 05:23:00;;;;;;;3.60;3.40;;;23.80;57.50;;;;;;5034623;28;20291;-76
2022/08/03 05:25:27;;;;;;;3.40;3.10;;;24.10;56.80;;;;;;5032932;28;20583;-76
2022/08/03 05:27:54;;;;;;;3.47;3.17;;;24.40;56.20;;;;;;5017058;28;20200;-75
2022/08/03 05:30:22;;;;;;;3.70;3.40;;;24.60;55.60;;;;;;5032705;28;20254;-76
2022/08/03 05:32:49;;;;;;;4.00;3.53;;;24.90;55.10;;;;;;5032742;28;20196;-77
2022/08/03 05:35:16;;;;;;;4.32;3.58;;;25.10;54.60;;;;;;5032655;28;20539;-75
2022/08/03 05:37:43;;;;;;;4.22;3.50;;;25.30;54.20;;;;;;5033738;28;20220;-76
2022/08/03 05:40:11;;;;;;;3.63;3.28;;;25.50;53.70;;;;;;5033992;28;20545;-76
2022/08/03 05:42:38;;;;;;;3.67;3.38;;;25.60;53.30;;;;;;5032582;28;20726;-77
2022/08/03 05:45:13;;;;;;;3.58;3.30;;;25.80;52.90;;;;;;5032759;28;20207;-75
2022/08/03 05:47:43;;;;;;;4.35;3.03;;;25.90;52.70;;;;;;5033446;28;20223;-74
2022/08/03 05:50:10;;;;;;;3.47;3.17;;;26.10;52.50;;;;;;5032854;28;20622;-75
2022/08/03 05:52:37;;;;;;;3.83;3.40;;;26.20;52.30;;;;;;5032574;28;20196;-74
2022/08/03 05:55:05;;;;;;;3.45;3.20;;;26.30;51.80;;;;;;5032363;28;20254;-76
2022/08/03 05:57:33;;;;;;;3.55;2.90;;;26.50;51.60;;;;;;5035756;28;20803;-75
2022/08/03 06:00:00;;;;;;;3.50;3.20;;;26.60;51.20;;;;;;5036437;28;20656;-76
2022/08/03 06:02:26;;;;;;;3.50;2.92;;;26.70;50.90;;;;;;5036453;28;20250;-74
2022/08/03 06:04:55;;;;;;;3.88;3.53;;;26.80;50.80;;;;;;5021146;28;20231;-75
2022/08/03 06:07:22;;;;;;;4.65;2.90;;;26.90;50.60;;;;;;5036229;28;20220;-74
2022/08/03 06:09:49;;;;;;;3.80;3.50;;;27.00;50.30;;;;;;5037389;28;20200;-76
2022/08/03 06:12:16;;;;;;;3.60;3.30;;;27.10;50.10;;;;;;5036408;28;20658;-74
2022/08/03 06:14:43;;;;;;;3.65;2.95;;;27.20;49.90;;;;;;5036201;28;20203;-74
2022/08/03 06:17:10;;;;;;;3.75;3.45;;;27.30;49.60;;;;;;5036041;28;20306;-75
2022/08/03 06:19:37;;;;;;;3.40;3.10;;;27.40;49.40;;;;;;5035993;28;20203;-75
2022/08/03 06:22:06;;;;;;;3.30;2.97;;;27.50;49.20;;;;;;5019820;28;20199;-75
2022/08/03 06:24:33;;;;;;;3.15;2.90;;;27.50;49.00;;;;;;5037424;28;20194;-74
2022/08/03 06:27:00;;;;;;;3.25;2.95;;;27.60;48.80;;;;;;5035807;28;20685;-75
2022/08/03 06:29:27;;;;;;;3.30;3.00;;;27.70;48.60;;;;;;5036502;28;20195;-75
2022/08/03 06:31:54;;;;;;;3.90;3.00;;;27.80;48.50;;;;;;5035899;28;20223;-74
2022/08/03 06:34:21;;;;;;;3.70;3.10;;;27.90;48.40;;;;;;5035749;28;20269;-76
2022/08/03 06:36:50;;;;;;;3.22;2.92;;;27.90;48.20;;;;;;5036248;28;20216;-76
2022/08/03 06:39:19;;;;;;;3.22;2.90;;;28.00;48.00;;;;;;5035753;28;20654;-75
2022/08/03 06:41:46;;;;;;;3.75;3.10;;;28.00;47.90;;;;;;5035765;28;20290;-76
2022/08/03 06:44:13;;;;;;;3.28;2.97;;;28.10;47.80;;;;;;5035746;28;20273;-75
2022/08/03 06:46:41;;;;;;;3.17;2.88;;;28.10;47.60;;;;;;5035489;28;20254;-75
2022/08/03 06:49:08;;;;;;;3.03;2.83;;;28.20;47.40;;;;;;5035545;28;20219;-75
2022/08/03 06:51:35;;;;;;;3.10;2.80;;;28.20;47.20;;;;;;5019567;28;20570;-76
2022/08/03 06:54:02;;;;;;;3.60;3.30;;;28.30;47.20;;;;;;5035418;28;20211;-76
2022/08/03 06:56:30;;;;;;;3.22;2.92;;;28.40;47.10;;;;;;5035407;28;20238;-74
2022/08/03 06:58:57;;;;;;;4.30;2.72;;;28.40;46.90;;;;;;5035660;28;20211;-75
2022/08/03 07:01:24;;;;;;;3.17;2.60;;;28.50;46.80;;;;;;5035321;28;20199;-75
2022/08/03 07:03:53;;;;;;;3.15;2.90;;;28.50;46.60;;;;;;5035317;28;20207;-75
2022/08/03 07:06:20;;;;;;;3.60;2.60;;;28.60;46.50;;;;;;5036798;28;20219;-76
2022/08/03 07:08:47;;;;;;;2.92;2.70;;;28.60;46.30;;;;;;5034409;28;20560;-75
2022/08/03 07:11:14;;;;;;;3.10;2.90;;;28.70;46.30;;;;;;5035175;28;20196;-76
2022/08/03 07:13:42;;;;;;;4.28;2.90;;;28.80;46.10;;;;;;5035914;28;20620;-75
2022/08/03 07:16:09;;;;;;;3.30;3.00;;;28.80;46.00;;;;;;5035118;28;20781;-76
2022/08/03 07:18:38;;;;;;;3.22;3.00;;;28.90;45.90;;;;;;5035224;28;20257;-75
2022/08/03 07:21:06;;;;;;;3.85;3.20;;;29.00;45.80;;;;;;5035567;28;20199;-76
2022/08/03 07:23:33;;;;;;;4.55;3.33;;;29.00;45.70;;;;;;5034974;28;20191;-76
2022/08/03 07:26:00;;;;;;;4.75;3.22;;;29.10;45.50;;;;;;5018930;28;20227;-76
2022/08/03 07:28:28;;;;;;;5.38;3.45;;;29.10;45.50;;;;;;5034900;28;20191;-76
2022/08/03 07:30:56;;;;;;;3.78;3.00;;;29.20;45.40;;;;;;5034750;28;20200;-75
2022/08/03 07:33:23;;;;;;;3.45;3.10;;;29.20;45.30;;;;;;5034826;28;20203;-75
2022/08/03 07:35:50;;;;;;;4.25;3.47;;;29.20;45.20;;;;;;5035112;28;20281;-75
2022/08/03 07:38:17;;;;;;;4.28;2.95;;;29.30;45.10;;;;;;5036062;28;20199;-75
2022/08/03 07:40:44;;;;;;;4.20;3.35;;;29.30;45.00;;;;;;5036205;28;20243;-75
2022/08/03 07:43:11;;;;;;;4.88;3.22;;;29.40;45.00;;;;;;5036266;28;20199;-74
2022/08/03 07:45:38;;;;;;;3.85;3.20;;;29.40;44.90;;;;;;5034569;28;20199;-75
2022/08/03 07:48:07;;;;;;;3.83;3.33;;;29.40;44.80;;;;;;5034562;28;20198;-75
2022/08/03 07:50:33;;;;;;;4.75;3.20;;;29.50;44.70;;;;;;5035987;28;20191;-75
2022/08/03 07:53:00;;;;;;;4.22;3.42;;;29.60;44.80;;;;;;5035186;28;20661;-76
2022/08/03 07:55:29;;;;;;;3.42;2.97;;;29.60;44.80;;;;;;5034933;28;20314;-75
2022/08/03 07:58:03;;;;;;;3.67;3.05;;;29.70;44.90;;;;;;5034539;28;20196;-75
2022/08/03 08:00:30;;;;;;;5.07;3.30;;;29.80;44.90;;;;;;5034568;28;20600;-75
2022/08/03 08:02:57;;;;;;;3.72;3.10;;;29.80;44.90;;;;;;5034254;28;20195;-75
2022/08/03 08:05:26;;;;;;;4.13;3.47;;;29.80;44.80;;;;;;5034166;28;20195;-76
2022/08/03 08:07:53;;;;;;;3.28;2.97;;;29.80;44.80;;;;;;5034208;28;20572;-74
2022/08/03 08:10:20;;;;;;;3.20;2.85;;;29.80;44.70;;;;;;5034449;28;20551;-76
2022/08/03 08:12:47;;;;;;;4.18;3.10;;;29.90;44.70;;;;;;5035530;28;20195;-75
2022/08/03 08:15:14;;;;;;;3.85;2.85;;;29.90;44.80;;;;;;5035378;28;20294;-74
2022/08/03 08:17:43;;;;;;;3.03;2.72;;;29.80;44.70;;;;;;5036889;28;20302;-75
2022/08/03 08:20:11;;;;;;;3.35;3.05;;;29.90;44.70;;;;;;5034654;28;20195;-74
2022/08/03 08:22:40;;;;;;;3.92;3.30;;;29.90;44.70;;;;;;5036390;28;20183;-76
2022/08/03 08:25:08;;;;;;;3.58;3.00;;;29.90;45.20;;;;;;5034018;28;20654;-74
2022/08/03 08:27:43;;;;;;;2.85;2.65;;;29.90;44.60;;;;;;5017435;28;20314;-75
2022/08/03 08:30:12;;;;;;;3.33;3.03;;;29.90;44.50;;;;;;5033563;28;20673;-76
2022/08/03 08:32:38;;;;;;;3.58;3.22;;;29.90;44.50;;;;;;5033713;28;20195;-75
2022/08/03 08:35:06;;;;;;;3.22;2.90;;;29.90;44.50;;;;;;5033882;28;20200;-75
2022/08/03 08:37:33;;;;;;;3.30;2.97;;;30.00;44.60;;;;;;5033603;28;20216;-75
2022/08/03 08:40:02;;;;;;;3.60;3.00;;;30.00;44.40;;;;;;5034934;28;20245;-75
2022/08/03 08:42:29;;;;;;;3.28;2.80;;;29.90;44.50;;;;;;5034604;28;20544;-76
2022/08/03 08:44:56;;;;;;;2.72;2.50;;;29.90;44.50;;;;;;5033287;28;20662;-74
2022/08/03 08:47:24;;;;;;;3.17;2.80;;;29.90;44.50;;;;;;5033329;28;20306;-76
2022/08/03 08:49:51;;;;;;;3.13;2.70;;;30.00;44.50;;;;;;5033371;28;20207;-76
2022/08/03 08:52:19;;;;;;;3.30;3.00;;;30.00;44.40;;;;;;5033324;28;20199;-76
2022/08/03 08:54:46;;;;;;;3.42;2.60;;;30.00;44.40;;;;;;5034403;28;20199;-75
2022/08/03 08:57:16;;;;;;;3.63;3.00;;;30.00;44.30;;;;;;5033268;28;20223;-76
2022/08/03 08:59:43;;;;;;;2.80;2.58;;;30.00;44.20;;;;;;5033064;28;20199;-76
2022/08/03 09:02:11;;;;;;;3.40;2.70;;;30.00;44.30;;;;;;5033204;28;20203;-75
2022/08/03 09:04:38;;;;;;;3.47;3.13;;;30.00;44.30;;;;;;5032979;28;20225;-75
2022/08/03 09:07:05;;;;;;;2.72;2.53;;;30.00;44.20;;;;;;5032990;28;20265;-76
2022/08/03 09:09:32;;;;;;;3.63;2.67;;;30.00;44.20;;;;;;5032722;28;20207;-76
2022/08/03 09:11:59;;;;;;;2.80;2.60;;;30.00;44.20;;;;;;5033028;28;20205;-76
2022/08/03 09:14:27;;;;;;;3.13;2.83;;;30.00;44.20;;;;;;5032913;28;20191;-77
2022/08/03 09:17:00;;;;;;;2.85;2.65;;;30.00;44.20;;;;;;5032822;28;20222;-76
2022/08/03 09:19:28;;;;;;;2.90;2.70;;;30.00;44.20;;;;;;5032807;28;20199;-74
2022/08/03 09:22:08;;;;;;;3.92;2.80;;;30.00;44.10;;;;;;5034059;28;20219;-74
2022/08/03 09:24:35;;;;;;;3.20;2.90;;;30.00;44.00;;;;;;5032820;28;20202;-76
2022/08/03 09:27:02;;;;;;;3.30;3.00;;;30.00;44.10;;;;;;5032687;28;20593;-76
2022/08/03 09:29:33;;;;;;;2.75;2.53;;;30.00;44.10;;;;;;5033859;28;20326;-74
2022/08/03 09:32:01;;;;;;;2.60;2.40;;;30.00;44.00;;;;;;5033178;28;20214;-75
2022/08/03 09:34:28;;;;;;;2.88;2.65;;;30.00;44.00;;;;;;5032595;28;20282;-76
2022/08/03 09:36:56;;;;;;;3.28;2.67;;;30.00;44.00;;;;;;5032867;28;20223;-74
2022/08/03 09:39:25;;;;;;;2.80;2.50;;;30.00;43.90;;;;;;5032511;28;20228;-76
2022/08/03 09:42:11;;;;;;;2.60;2.40;;;30.10;44.00;;;;;;5033127;28;20234;-75
2022/08/03 09:44:41;;;;;;;2.60;2.40;;;30.10;44.00;;;;;;5033391;28;20286;-74
2022/08/03 09:47:08;;;;;;;2.58;2.38;;;30.10;44.00;;;;;;5032394;28;20222;-75
2022/08/03 09:49:36;;;;;;;2.90;2.40;;;30.10;43.90;;;;;;5033649;28;20192;-75
2022/08/03 09:52:12;;;;;;;2.67;2.47;;;30.10;43.90;;;;;;5032500;28;20733;-75
2022/08/03 09:54:40;;;;;;;2.50;2.30;;;30.10;44.00;;;;;;5033579;28;20199;-76
2022/08/03 09:57:06;;;;;;;2.80;2.60;;;30.10;44.60;;;;;;5032493;28;20215;-76
2022/08/03 09:59:34;;;;;;;2.47;2.28;;;30.10;44.00;;;;;;5032579;28;20210;-75
2022/08/03 10:02:02;;;;;;;2.75;2.55;;;30.10;44.10;;;;;;5032334;28;20247;-76
2022/08/03 10:04:29;;;;;;;3.25;2.65;;;30.00;44.10;;;;;;5033558;28;20195;-76
2022/08/03 10:07:04;;;;;;;2.60;2.40;;;30.00;44.10;;;;;;5032364;28;20674;-77
2022/08/03 10:09:31;;;;;;;2.80;2.60;;;30.00;44.10;;;;;;5032339;28;20314;-76
2022/08/03 10:12:06;;;;;;;2.63;2.42;;;30.00;44.20;;;;;;5032333;28;20206;-74
2022/08/03 10:14:33;;;;;;;2.50;2.30;;;30.00;44.20;;;;;;5015874;28;20660;-76
2022/08/03 10:17:02;;;;;;;2.88;2.60;;;30.00;44.30;;;;;;5032216;28;20219;-75
2022/08/03 10:19:29;;;;;;;2.53;2.33;;;30.00;44.30;;;;;;5032209;28;20195;-76
2022/08/03 10:21:56;;;;;;;2.58;2.38;;;29.90;44.40;;;;;;5033656;28;20211;-77
2022/08/03 10:24:25;;;;;;;2.78;2.55;;;29.90;44.40;;;;;;5015822;28;20204;-76
2022/08/03 10:26:53;;;;;;;2.53;2.33;;;29.80;45.10;;;;;;5032992;28;20223;-75
2022/08/03 10:29:23;;;;;;;2.92;2.38;;;29.90;44.60;;;;;;5031993;28;20200;-76
2022/08/03 10:31:51;;;;;;;2.40;2.17;;;29.80;44.60;;;;;;5032134;28;20199;-75
2022/08/03 10:34:22;;;;;;;2.55;2.20;;;29.80;44.70;;;;;;5031908;28;20195;-75
2022/08/03 10:36:49;;;;;;;2.97;2.38;;;29.70;44.80;;;;;;5032708;28;20285;-76
2022/08/03 10:39:18;;;;;;;2.40;2.20;;;29.70;44.90;;;;;;5031959;28;20210;-75
2022/08/03 10:41:46;;;;;;;2.50;2.30;;;29.60;44.90;;;;;;5031900;28;20206;-75
2022/08/03 10:44:15;;;;;;;2.90;2.70;;;29.60;45.00;;;;;;5034585;28;20708;-76
2022/08/03 10:46:42;;;;;;;2.33;2.13;;;29.50;45.00;;;;;;5035788;28;20693;-76
2022/08/03 10:49:11;;;;;;;2.30;2.10;;;29.50;45.10;;;;;;5019639;28;20204;-75
2022/08/03 10:51:39;;;;;;;2.08;1.98;;;29.50;45.20;;;;;;5037166;28;20196;-76
2022/08/03 10:54:09;;;;;;;2.40;2.20;;;29.40;45.30;;;;;;5035440;28;20658;-74
2022/08/03 10:59:58;;;;;;;2.42;2.22;;;29.30;45.50;;;;;;5035563;28;20195;-75
2022/08/03 11:02:58;;;;;;;2.30;2.10;;;29.30;45.70;;;;;;5036243;28;20199;-76
2022/08/03 11:05:26;;;;;;;2.95;2.40;;;29.30;45.80;;;;;;5019302;28;20198;-76
2022/08/03 11:08:25;;;;;;;2.58;2.20;;;29.30;45.90;;;;;;5035272;28;20314;-75
2022/08/03 11:10:53;;;;;;;2.30;2.10;;;29.20;46.00;;;;;;5035208;28;20218;-77
2022/08/03 11:13:21;;;;;;;2.30;2.10;;;29.20;46.10;;;;;;5035315;28;20195;-75
2022/08/03 11:15:49;;;;;;;2.38;2.17;;;29.20;46.20;;;;;;5035115;28;20226;-75
2022/08/03 11:18:16;;;;;;;2.25;1.83;;;29.10;46.20;;;;;;5035113;28;20204;-76
2022/08/03 11:20:50;;;;;;;2.50;2.30;;;29.00;46.30;;;;;;5018729;28;20252;-75
2022/08/03 11:23:20;;;;;;;2.35;2.15;;;29.00;46.40;;;;;;5034965;28;20656;-76
2022/08/03 11:26:12;;;;;;;2.33;2.00;;;29.00;46.50;;;;;;5035258;28;20215;-74
2022/08/03 11:28:39;;;;;;;2.40;2.20;;;29.00;46.60;;;;;;5034832;28;20242;-75
2022/08/03 11:31:44;;;;;;;2.38;2.17;;;28.90;46.60;;;;;;5035643;28;20244;-75
2022/08/03 11:34:11;;;;;;;2.33;2.13;;;28.90;46.80;;;;;;5035314;28;20203;-73
2022/08/03 11:37:12;;;;;;;2.00;1.90;;;28.90;46.90;;;;;;5036192;28;20258;-75
2022/08/03 11:39:42;;;;;;;2.17;2.00;;;28.80;47.00;;;;;;5034834;28;20238;-75
2022/08/03 11:42:42;;;;;;;2.22;1.90;;;28.80;47.00;;;;;;5035080;28;20192;-76
2022/08/03 11:45:10;;;;;;;2.20;2.00;;;28.80;47.10;;;;;;5035220;28;20200;-76
2022/08/03 11:47:38;;;;;;;2.65;2.35;;;28.80;47.10;;;;;;5034993;28;20709;-76
2022/08/03 11:50:06;;;;;;;2.15;2.00;;;28.80;47.10;;;;;;5036205;28;20556;-76
2022/08/03 11:52:40;;;;;;;2.35;2.15;;;28.80;47.10;;;;;;5034766;28;20206;-76
2022/08/03 11:55:17;;;;;;;2.03;1.92;;;28.80;47.20;;;;;;5034426;28;20230;-74
2022/08/03 11:57:45;;;;;;;1.90;1.80;;;28.80;47.20;;;;;;5034798;28;20261;-76
2022/08/03 12:00:23;;;;;;;2.20;2.00;;;28.70;47.20;;;;;;5034824;28;20196;-76
2022/08/03 12:02:56;;;;;;;2.30;2.10;;;28.80;47.30;;;;;;5034292;28;20289;-76
2022/08/03 12:05:39;;;;;;;2.40;2.20;;;28.70;47.30;;;;;;5018946;28;20333;-75
2022/08/03 12:08:07;;;;;;;2.00;1.90;;;28.70;47.40;;;;;;5035926;28;20195;-75
2022/08/03 12:10:35;;;;;;;2.17;1.98;;;28.70;47.30;;;;;;5035797;28;20662;-74
2022/08/03 12:13:04;;;;;;;1.88;1.77;;;28.70;47.40;;;;;;5034818;28;20203;-75
2022/08/03 12:15:32;;;;;;;1.85;1.75;;;28.70;48.00;;;;;;5034225;28;20208;-76
2022/08/03 12:17:59;;;;;;;2.17;1.98;;;28.70;47.50;;;;;;5034411;28;20217;-74
2022/08/03 12:20:27;;;;;;;2.13;2.03;;;28.60;47.80;;;;;;5034303;28;20689;-76
2022/08/03 12:22:54;;;;;;;2.72;1.80;;;28.70;48.00;;;;;;5035086;28;20654;-76
2022/08/03 12:25:22;;;;;;;2.38;2.17;;;28.70;48.10;;;;;;5034249;28;20253;-74
2022/08/03 12:27:51;;;;;;;1.83;1.73;;;28.70;48.30;;;;;;5033854;28;20273;-76
2022/08/03 12:30:18;;;;;;;2.10;1.85;;;28.70;48.40;;;;;;5034328;28;20203;-75
2022/08/03 12:32:45;;;;;;;2.28;1.80;;;28.70;48.60;;;;;;5034088;28;20191;-73
2022/08/03 12:35:22;;;;;;;1.88;1.75;;;28.70;48.70;;;;;;5033947;28;20196;-74
2022/08/03 12:37:49;;;;;;;2.47;1.80;;;28.70;48.50;;;;;;5034901;28;20207;-75
2022/08/03 12:40:16;;;;;;;1.98;1.88;;;28.70;48.60;;;;;;5033889;28;20199;-73
2022/08/03 12:42:43;;;;;;;1.95;1.70;;;28.70;48.70;;;;;;5016806;28;20196;-74
2022/08/03 12:45:21;;;;;;;1.95;1.83;;;28.60;48.50;;;;;;5034363;28;20200;-75
2022/08/03 12:47:52;;;;;;;2.20;1.75;;;28.70;48.60;;;;;;5017016;28;20215;-75
2022/08/03 12:50:26;;;;;;;2.10;1.90;;;28.60;48.60;;;;;;5034641;28;20254;-74
2022/08/03 12:52:53;;;;;;;2.17;1.83;;;28.60;48.50;;;;;;5033883;28;20208;-72
2022/08/03 12:55:21;;;;;;;1.77;1.67;;;28.70;48.50;;;;;;5033439;28;20200;-74
2022/08/03 12:57:48;;;;;;;1.75;1.65;;;28.60;48.40;;;;;;5033443;28;20226;-75
2022/08/03 13:00:18;;;;;;;2.63;1.70;;;28.60;48.40;;;;;;5033298;28;20265;-73
2022/08/03 13:02:46;;;;;;;3.30;1.70;;;28.60;48.40;;;;;;5034630;28;20191;-75
2022/08/03 13:05:14;;;;;;;1.60;1.50;;;28.60;48.40;;;;;;5033998;28;20198;-73